Time;durP1;ratioP1;P1;durP2;ratioP2;P2;SDS_P1;SDS_P2;PMS_P1;PMS_P2;Temp;Humidity;BMP_temperature;BMP_pressure;BME280_temperature;BME280_humidity;BME280_pressure;Samples;Min_cycle;Max_cycle;Signal;HPM_P1;HPM_P2
2022/01/12 00:01:29;;;;;;;7.80;6.73;;;3.10;81.50;;;;;;5013440;28;20198;-89
2022/01/12 00:03:55;;;;;;;7.40;6.50;;;3.10;81.30;;;;;;5005233;28;20202;-89
2022/01/12 00:06:21;;;;;;;6.73;6.13;;;3.00;81.60;;;;;;5008838;28;20676;-89
2022/01/12 00:08:48;;;;;;;7.10;6.33;;;3.00;82.30;;;;;;5011341;28;20244;-89
2022/01/12 00:11:14;;;;;;;6.97;6.30;;;3.00;82.50;;;;;;5000090;28;20225;-89
2022/01/12 00:13:40;;;;;;;7.47;6.40;;;3.00;83.40;;;;;;5004230;28;20198;-90
2022/01/12 00:16:06;;;;;;;6.97;5.97;;;3.00;83.70;;;;;;5010514;28;20561;-90
2022/01/12 00:18:32;;;;;;;7.33;6.63;;;3.10;83.60;;;;;;5016741;28;20197;-89
2022/01/12 00:20:58;;;;;;;7.93;6.87;;;3.10;83.40;;;;;;5019124;28;20216;-89
2022/01/12 00:23:24;;;;;;;7.23;6.53;;;3.20;82.80;;;;;;5013038;28;20202;-90
2022/01/12 00:26:04;;;;;;;7.20;6.43;;;3.10;82.40;;;;;;5017946;28;20553;-90
2022/01/12 00:34:07;;;;;;;7.33;6.53;;;3.10;82.80;;;;;;5012156;28;20204;-89
2022/01/12 00:36:33;;;;;;;6.93;6.10;;;3.00;83.00;;;;;;5016597;28;20193;-90
2022/01/12 00:39:00;;;;;;;8.27;6.63;;;3.10;83.80;;;;;;5018781;28;20189;-90
2022/01/12 00:41:26;;;;;;;8.33;7.53;;;3.10;83.30;;;;;;5008852;28;20190;-90
2022/01/12 00:43:59;;;;;;;7.00;6.40;;;3.10;82.10;;;;;;5009595;28;20195;-89
2022/01/12 00:46:30;;;;;;;7.97;7.17;;;3.00;83.20;;;;;;5004590;28;20728;-89
2022/01/12 00:48:58;;;;;;;8.00;7.20;;;3.10;83.20;;;;;;5020319;28;20208;-90
2022/01/12 00:51:26;;;;;;;8.20;6.93;;;3.10;82.90;;;;;;5016044;28;20186;-90
2022/01/12 00:53:53;;;;;;;8.80;6.93;;;3.00;82.80;;;;;;5013757;28;20193;-89
2022/01/12 00:56:20;;;;;;;8.57;7.60;;;3.00;83.10;;;;;;5001143;28;20244;-90
2022/01/12 00:58:45;;;;;;;8.50;6.97;;;2.90;82.90;;;;;;5015460;28;20277;-90
2022/01/12 01:01:11;;;;;;;6.83;6.13;;;2.90;83.10;;;;;;5011255;28;20225;-89
2022/01/12 01:03:37;;;;;;;7.40;6.47;;;2.80;83.80;;;;;;5015991;28;20199;-90
2022/01/12 01:06:03;;;;;;;7.40;6.10;;;2.90;83.20;;;;;;5012527;28;20209;-89
2022/01/12 01:08:28;;;;;;;7.33;6.40;;;3.00;83.40;;;;;;5012888;28;20241;-89
2022/01/12 01:10:56;;;;;;;7.53;6.57;;;2.90;84.30;;;;;;5033095;28;20221;-89
2022/01/12 01:13:33;;;;;;;8.33;7.20;;;2.80;84.30;;;;;;5018133;28;20214;-90
2022/01/12 01:16:10;;;;;;;7.73;6.93;;;2.80;84.80;;;;;;5003361;28;20779;-90
2022/01/12 01:26:50;;;;;;;6.77;6.17;;;2.90;83.70;;;;;;5012217;28;20729;-89
2022/01/12 01:29:17;;;;;;;7.23;6.53;;;2.90;83.80;;;;;;5007553;28;20266;-90
2022/01/12 01:31:44;;;;;;;8.47;6.43;;;2.90;84.30;;;;;;5016211;28;20209;-90
2022/01/12 01:34:12;;;;;;;7.50;6.80;;;2.80;84.70;;;;;;4996727;28;20217;-89
2022/01/12 01:36:50;;;;;;;6.57;5.90;;;2.90;84.40;;;;;;5010702;28;20224;-89
2022/01/12 01:39:21;;;;;;;7.33;6.63;;;2.80;83.40;;;;;;5005024;28;20201;-89
2022/01/12 01:41:54;;;;;;;8.10;6.77;;;2.80;84.50;;;;;;4994141;28;20194;-89
2022/01/12 01:54:46;;;;;;;7.10;6.40;;;2.80;85.30;;;;;;5015399;28;20793;-89
2022/01/12 01:57:12;;;;;;;8.27;6.67;;;2.70;85.00;;;;;;5004759;28;20297;-89
2022/01/12 01:59:38;;;;;;;6.97;6.10;;;2.60;84.10;;;;;;5002864;28;20198;-88
2022/01/12 02:02:04;;;;;;;6.73;6.03;;;2.60;85.50;;;;;;5013297;28;20199;-89
2022/01/12 02:04:29;;;;;;;7.43;6.60;;;2.60;86.20;;;;;;5010930;28;20305;-89
2022/01/12 02:06:58;;;;;;;7.60;6.80;;;2.60;86.50;;;;;;5011225;28;20197;-89
2022/01/12 02:09:27;;;;;;;6.97;6.27;;;2.50;87.20;;;;;;5021098;28;20271;-89
2022/01/12 02:11:53;;;;;;;7.30;6.57;;;2.60;87.30;;;;;;5020811;28;20186;-90
2022/01/12 02:14:20;;;;;;;7.33;6.57;;;2.60;87.10;;;;;;5016437;28;20209;-90
2022/01/12 02:16:58;;;;;;;7.20;6.50;;;2.60;87.10;;;;;;5016384;28;20190;-89
2022/01/12 02:36:18;;;;;;;8.70;6.70;;;2.20;87.80;;;;;;5015450;28;20216;-89
2022/01/12 02:41:28;;;;;;;10.53;7.27;;;2.30;89.00;;;;;;5020144;28;20212;-89
2022/01/12 02:54:52;;;;;;;9.77;7.17;;;2.10;88.60;;;;;;5023484;28;20408;-88
2022/01/12 02:57:19;;;;;;;7.60;6.50;;;2.10;87.30;;;;;;5014393;28;20200;-89
2022/01/12 03:00:07;;;;;;;7.37;6.13;;;2.00;85.90;;;;;;5017564;28;20489;-89
2022/01/12 03:02:39;;;;;;;6.60;5.87;;;1.90;87.60;;;;;;5012638;28;20243;-89
2022/01/12 03:07:40;;;;;;;6.97;6.30;;;1.70;88.40;;;;;;5024141;28;20692;-90
2022/01/12 03:10:08;;;;;;;7.47;6.67;;;1.70;90.40;;;;;;5021805;28;21260;-89
2022/01/12 03:12:41;;;;;;;9.13;7.23;;;1.70;90.70;;;;;;5005657;28;20669;-90
2022/01/12 03:15:07;;;;;;;7.27;6.43;;;1.60;90.10;;;;;;5021252;28;20259;-89
2022/01/12 03:17:34;;;;;;;9.27;6.77;;;1.60;89.30;;;;;;5018918;28;20197;-89
2022/01/12 03:20:01;;;;;;;6.30;5.60;;;1.60;89.60;;;;;;5021701;28;20198;-89
2022/01/12 03:22:27;;;;;;;6.93;6.23;;;1.50;91.00;;;;;;5021600;28;20193;-90
2022/01/12 03:24:52;;;;;;;6.97;6.27;;;1.60;92.10;;;;;;5022302;28;20209;-90
2022/01/12 03:27:18;;;;;;;7.43;6.47;;;1.70;92.60;;;;;;5018022;28;20214;-90
2022/01/12 03:29:49;;;;;;;7.93;7.03;;;1.80;92.50;;;;;;5014044;28;20271;-89
2022/01/12 03:32:18;;;;;;;7.57;6.80;;;1.80;92.50;;;;;;5015734;28;20174;-90
2022/01/12 03:34:53;;;;;;;7.53;6.70;;;1.80;92.20;;;;;;5017851;28;20241;-90
2022/01/12 03:40:05;;;;;;;7.70;6.57;;;1.80;90.20;;;;;;5024187;28;20197;-90
2022/01/12 03:42:31;;;;;;;7.67;6.73;;;1.60;88.70;;;;;;5012206;28;20202;-90
2022/01/12 03:44:57;;;;;;;8.03;6.97;;;1.50;90.40;;;;;;5018278;28;20228;-90
2022/01/12 03:47:22;;;;;;;7.80;6.87;;;1.40;90.30;;;;;;5016236;28;20221;-91
2022/01/12 03:49:48;;;;;;;7.70;6.80;;;1.30;92.50;;;;;;5017420;28;20197;-90
2022/01/12 03:52:14;;;;;;;7.63;6.83;;;1.20;91.90;;;;;;5011516;28;20530;-90
2022/01/12 03:54:39;;;;;;;9.67;6.73;;;1.10;91.40;;;;;;5016290;28;20303;-90
2022/01/12 03:57:05;;;;;;;7.10;5.97;;;1.00;92.30;;;;;;5025248;28;20232;-89
2022/01/12 03:59:32;;;;;;;7.57;6.60;;;0.80;94.50;;;;;;5026400;28;20202;-90
2022/01/12 04:01:57;;;;;;;8.00;6.63;;;0.80;95.40;;;;;;5015176;28;20204;-90
2022/01/12 04:04:31;;;;;;;8.10;6.40;;;0.80;96.00;;;;;;5012382;28;20233;-90
2022/01/12 04:09:42;;;;;;;8.37;6.97;;;1.10;97.90;;;;;;5021727;28;20221;-89
2022/01/12 04:12:08;;;;;;;7.87;6.93;;;1.20;96.70;;;;;;5014310;28;20178;-90
2022/01/12 04:14:33;;;;;;;9.60;7.20;;;1.20;93.90;;;;;;5020100;28;20205;-89
2022/01/12 04:16:59;;;;;;;8.60;7.00;;;0.90;93.60;;;;;;5000800;28;20653;-89
2022/01/12 04:19:26;;;;;;;8.80;7.40;;;0.70;94.80;;;;;;5007023;28;20199;-89
2022/01/12 04:21:52;;;;;;;8.20;6.93;;;0.60;97.20;;;;;;5016503;28;20192;-88
2022/01/12 04:24:18;;;;;;;9.57;7.33;;;0.70;99.10;;;;;;5012138;28;20213;-88
2022/01/12 04:26:44;;;;;;;7.67;6.87;;;0.80;99.20;;;;;;5015889;28;20190;-89
2022/01/12 04:29:10;;;;;;;8.43;7.43;;;0.90;98.90;;;;;;5017857;28;20194;-89
2022/01/12 04:31:37;;;;;;;9.73;7.17;;;1.00;98.40;;;;;;5006687;28;20194;-89
2022/01/12 04:34:04;;;;;;;8.50;7.13;;;1.10;95.70;;;;;;5009769;28;20193;-88
2022/01/12 04:36:30;;;;;;;7.40;6.53;;;0.90;93.70;;;;;;5014379;28;20199;-88
2022/01/12 04:38:56;;;;;;;8.13;7.10;;;0.60;94.70;;;;;;5017119;28;20657;-88
2022/01/12 04:41:24;;;;;;;8.77;7.37;;;0.30;97.00;;;;;;5000034;28;20676;-89
2022/01/12 04:43:50;;;;;;;9.90;7.70;;;0.10;98.80;;;;;;5013685;28;20182;-89
2022/01/12 04:51:07;;;;;;;12.80;9.30;;;0.10;99.90;;;;;;5015474;28;20189;-88
2022/01/12 04:53:33;;;;;;;10.67;8.23;;;0.10;99.90;;;;;;5003417;28;20186;-88
2022/01/12 04:55:59;;;;;;;8.77;6.93;;;0.00;99.90;;;;;;5014262;28;20229;-88
2022/01/12 04:58:25;;;;;;;8.20;6.73;;;0.10;99.90;;;;;;5015328;28;20680;-89
2022/01/12 05:00:52;;;;;;;8.23;7.37;;;0.20;99.90;;;;;;5005110;28;20199;-89
2022/01/12 05:09:07;;;;;;;7.90;7.10;;;0.50;99.90;;;;;;5010499;28;20252;-90
2022/01/12 05:14:18;;;;;;;8.57;7.20;;;0.70;98.50;;;;;;5016695;28;20225;-88
2022/01/12 05:16:44;;;;;;;8.97;7.63;;;0.70;98.70;;;;;;5007214;28;20190;-89
2022/01/12 05:19:10;;;;;;;9.77;8.07;;;0.80;98.70;;;;;;5011225;28;20216;-89
2022/01/12 05:21:35;;;;;;;10.10;7.97;;;0.90;98.10;;;;;;5010336;28;20190;-89
2022/01/12 05:24:06;;;;;;;8.40;7.50;;;0.90;95.80;;;;;;5015797;28;20197;-89
2022/01/12 05:26:35;;;;;;;9.77;8.13;;;0.60;95.10;;;;;;5009455;28;20193;-89
2022/01/12 05:29:00;;;;;;;9.33;8.00;;;0.30;97.10;;;;;;5007884;28;20205;-89
2022/01/12 05:31:26;;;;;;;11.77;10.60;;;0.30;99.00;;;;;;5008206;28;20193;-89
2022/01/12 05:33:52;;;;;;;9.40;8.03;;;0.40;99.50;;;;;;5003826;28;20415;-89
2022/01/12 05:36:19;;;;;;;11.33;7.97;;;0.40;98.20;;;;;;5003697;28;20798;-89
2022/01/12 05:38:46;;;;;;;9.40;7.80;;;0.40;98.30;;;;;;5007237;28;20232;-89
2022/01/12 05:41:12;;;;;;;10.00;7.67;;;0.30;98.30;;;;;;5013536;28;20613;-89
2022/01/12 05:43:40;;;;;;;10.77;8.20;;;0.20;98.70;;;;;;5010401;28;20197;-89
2022/01/12 05:46:10;;;;;;;10.90;9.07;;;0.30;99.80;;;;;;5010123;28;20216;-89
2022/01/12 05:51:25;;;;;;;10.47;9.20;;;0.50;99.90;;;;;;5008035;28;20228;-89
2022/01/12 05:53:51;;;;;;;8.97;8.07;;;0.60;98.70;;;;;;5008971;28;20442;-88
2022/01/12 05:56:17;;;;;;;10.23;8.10;;;0.60;98.00;;;;;;5012440;28;20190;-90
2022/01/12 05:58:43;;;;;;;8.60;7.70;;;0.60;98.50;;;;;;5014413;28;20212;-89
2022/01/12 06:01:09;;;;;;;9.67;8.03;;;0.70;98.80;;;;;;5012774;28;20229;-89
2022/01/12 06:03:34;;;;;;;10.97;8.97;;;0.80;98.30;;;;;;5013532;28;20228;-91
2022/01/12 06:06:00;;;;;;;9.47;8.13;;;0.80;97.10;;;;;;5016572;28;20612;-90
2022/01/12 06:08:26;;;;;;;10.83;8.83;;;0.80;97.40;;;;;;5010817;28;20241;-90
2022/01/12 06:10:51;;;;;;;10.40;8.80;;;0.70;95.80;;;;;;5016968;28;20208;-89
2022/01/12 06:13:17;;;;;;;9.63;7.77;;;0.70;98.00;;;;;;5014916;28;20661;-90
2022/01/12 06:15:43;;;;;;;12.53;9.03;;;0.70;97.50;;;;;;5011926;28;20214;-90
2022/01/12 06:18:09;;;;;;;10.37;9.03;;;0.80;97.60;;;;;;5015515;28;20213;-90
2022/01/12 06:20:34;;;;;;;11.50;9.00;;;0.80;96.30;;;;;;5017984;28;20217;-90
2022/01/12 06:23:00;;;;;;;12.10;9.53;;;0.80;95.70;;;;;;5013708;28;20186;-89
2022/01/12 06:25:26;;;;;;;10.30;9.20;;;0.70;95.40;;;;;;5016396;28;20228;-91
2022/01/12 06:27:55;;;;;;;10.60;9.00;;;0.60;96.40;;;;;;5014918;28;20221;-91
2022/01/12 06:32:53;;;;;;;10.20;9.20;;;0.70;96.00;;;;;;5012574;28;20186;-90
2022/01/12 06:35:18;;;;;;;10.03;9.07;;;0.60;95.40;;;;;;5013082;28;20229;-90
2022/01/12 06:37:44;;;;;;;10.27;8.50;;;0.60;96.20;;;;;;5013037;28;20193;-90
2022/01/12 06:40:12;;;;;;;10.07;8.80;;;0.50;96.60;;;;;;5013420;28;20677;-90
2022/01/12 06:42:38;;;;;;;11.10;8.93;;;0.50;97.00;;;;;;5020097;28;20216;-91
2022/01/12 06:45:04;;;;;;;11.20;9.37;;;0.60;96.10;;;;;;5012739;28;20198;-89
2022/01/12 06:47:29;;;;;;;11.93;8.83;;;0.40;95.60;;;;;;5024524;28;20256;-89
2022/01/12 06:49:55;;;;;;;11.53;9.73;;;0.40;97.00;;;;;;5021868;28;20613;-91
2022/01/12 06:52:21;;;;;;;9.97;8.97;;;0.40;97.60;;;;;;5018291;28;20193;-92
2022/01/12 06:54:46;;;;;;;11.13;9.57;;;0.50;98.40;;;;;;5035338;28;20217;-89
2022/01/12 06:57:12;;;;;;;12.40;10.57;;;0.50;95.90;;;;;;5031297;28;20193;-90
2022/01/12 06:59:38;;;;;;;10.57;9.47;;;0.50;97.10;;;;;;5025075;28;20189;-91
2022/01/12 07:02:04;;;;;;;12.67;10.20;;;0.50;96.60;;;;;;5019613;28;20198;-91
2022/01/12 07:04:30;;;;;;;11.67;9.90;;;0.40;95.20;;;;;;5016486;28;20210;-92
2022/01/12 07:06:56;;;;;;;12.27;9.93;;;0.40;96.00;;;;;;5020909;28;20193;-90
2022/01/12 07:09:23;;;;;;;10.83;9.07;;;0.40;96.50;;;;;;5022810;28;20193;-91
2022/01/12 07:11:49;;;;;;;11.33;9.20;;;0.40;95.20;;;;;;5011005;28;20265;-91
2022/01/12 07:14:14;;;;;;;10.60;9.50;;;0.20;95.60;;;;;;5013561;28;20294;-91
2022/01/12 07:16:40;;;;;;;11.63;10.33;;;0.00;96.70;;;;;;5014444;28;20185;-91
2022/01/12 07:19:06;;;;;;;11.83;9.53;;;-0.20;98.20;;;;;;5011932;28;20202;-91
2022/01/12 07:21:32;;;;;;;10.87;9.77;;;-0.30;99.70;;;;;;5015735;28;20202;-92
2022/01/12 07:23:58;;;;;;;11.10;9.13;;;-0.40;99.90;;;;;;5014137;28;20232;-90
2022/01/12 07:26:24;;;;;;;13.73;11.37;;;-0.50;99.90;;;;;;4995829;28;20198;-91
2022/01/12 07:28:51;;;;;;;13.67;11.17;;;-0.50;99.90;;;;;;5017085;28;20214;-90
2022/01/12 07:31:16;;;;;;;12.47;11.13;;;-0.50;99.90;;;;;;5015274;28;20325;-91
2022/01/12 07:33:43;;;;;;;13.43;10.10;;;-0.40;99.90;;;;;;5010171;28;20683;-91
2022/01/12 07:36:08;;;;;;;14.23;10.10;;;-0.30;99.90;;;;;;5018753;28;20324;-92
2022/01/12 07:38:34;;;;;;;12.33;10.37;;;-0.30;99.90;;;;;;5014286;28;20648;-92
2022/01/12 07:41:00;;;;;;;10.63;9.53;;;-0.20;99.90;;;;;;5014139;28;20185;-92
2022/01/12 07:43:30;;;;;;;11.40;9.80;;;-0.10;99.60;;;;;;5020088;28;20572;-92
2022/01/12 07:45:55;;;;;;;11.43;9.50;;;-0.10;99.30;;;;;;5015254;28;20213;-91
2022/01/12 07:48:24;;;;;;;13.53;10.83;;;0.00;99.90;;;;;;5009296;28;20243;-90
2022/01/12 07:50:50;;;;;;;11.70;9.93;;;0.10;98.80;;;;;;5007793;28;20187;-90
2022/01/12 07:53:16;;;;;;;11.60;10.40;;;0.10;99.90;;;;;;5007978;28;20190;-91
2022/01/12 07:55:41;;;;;;;11.87;10.57;;;0.20;99.20;;;;;;5011232;28;20320;-91
2022/01/12 07:58:07;;;;;;;11.80;9.60;;;0.30;98.60;;;;;;5013670;28;20822;-91
2022/01/12 08:00:33;;;;;;;11.33;9.90;;;0.30;97.90;;;;;;5015885;28;20310;-91
2022/01/12 08:02:59;;;;;;;12.97;10.40;;;0.40;97.70;;;;;;5018551;28;20190;-92
2022/01/12 08:05:25;;;;;;;11.07;9.83;;;0.40;97.30;;;;;;5014583;28;20473;-91
2022/01/12 08:07:52;;;;;;;13.67;10.60;;;0.30;97.70;;;;;;5017890;28;20232;-92
2022/01/12 08:10:18;;;;;;;10.93;9.67;;;0.30;97.00;;;;;;5012808;28;20189;-91
2022/01/12 08:12:44;;;;;;;13.37;11.30;;;0.30;98.00;;;;;;5015243;28;20193;-91
2022/01/12 08:15:10;;;;;;;14.23;11.87;;;0.30;96.70;;;;;;5033541;28;20240;-91
2022/01/12 08:17:36;;;;;;;12.20;10.90;;;0.30;97.20;;;;;;5010605;28;20191;-92
2022/01/12 08:20:07;;;;;;;11.33;10.13;;;0.30;97.80;;;;;;5015341;28;20239;-92
2022/01/12 08:22:33;;;;;;;14.40;10.97;;;0.40;95.90;;;;;;5009893;28;20208;-90
2022/01/12 08:24:58;;;;;;;12.77;10.93;;;0.40;95.60;;;;;;5016489;28;20202;-91
2022/01/12 08:27:24;;;;;;;12.17;10.93;;;0.50;95.40;;;;;;5018630;28;20217;-91
2022/01/12 08:29:54;;;;;;;13.17;11.37;;;0.40;96.10;;;;;;5010723;28;20200;-91
2022/01/12 08:32:19;;;;;;;14.90;12.10;;;0.40;96.10;;;;;;5017721;28;20193;-92
2022/01/12 08:34:45;;;;;;;12.97;11.67;;;0.40;96.70;;;;;;5010854;28;20305;-92
2022/01/12 08:37:11;;;;;;;14.20;11.63;;;0.40;97.20;;;;;;5008950;28;20237;-92
2022/01/12 08:39:36;;;;;;;12.60;11.27;;;0.50;97.80;;;;;;5019823;28;20712;-91
2022/01/12 08:42:02;;;;;;;13.20;11.77;;;0.50;97.00;;;;;;5016974;28;20194;-90
2022/01/12 08:44:28;;;;;;;13.23;11.13;;;0.50;96.30;;;;;;5016742;28;20209;-91
2022/01/12 08:46:54;;;;;;;12.17;10.73;;;0.50;96.70;;;;;;5018746;28;20205;-90
2022/01/12 08:49:20;;;;;;;11.60;10.30;;;0.50;96.50;;;;;;5018666;28;20561;-91
2022/01/12 08:51:45;;;;;;;12.03;10.63;;;0.60;94.60;;;;;;5014031;28;20182;-90
2022/01/12 08:54:13;;;;;;;12.53;11.23;;;0.70;94.20;;;;;;5014148;28;20298;-90
2022/01/12 08:56:39;;;;;;;12.37;10.50;;;0.80;95.40;;;;;;5014894;28;20704;-90
2022/01/12 08:59:04;;;;;;;13.40;11.17;;;0.80;93.70;;;;;;5013462;28;20185;-89
2022/01/12 09:01:30;;;;;;;13.07;10.70;;;0.80;94.30;;;;;;5015655;28;20373;-90
2022/01/12 09:03:56;;;;;;;20.17;14.90;;;0.90;95.70;;;;;;4998079;28;20390;-89
2022/01/12 09:06:21;;;;;;;14.57;12.93;;;0.90;93.30;;;;;;5006236;28;20194;-90
2022/01/12 09:08:49;;;;;;;18.00;12.50;;;1.00;93.90;;;;;;5005702;28;20647;-90
2022/01/12 09:11:15;;;;;;;13.33;11.93;;;1.10;92.20;;;;;;5020852;28;20657;-90
2022/01/12 09:13:41;;;;;;;16.00;13.23;;;1.10;91.70;;;;;;5008898;28;20796;-91
2022/01/12 09:16:08;;;;;;;15.90;12.63;;;1.20;91.90;;;;;;5011094;28;20237;-90
2022/01/12 09:18:39;;;;;;;12.63;10.60;;;1.20;91.70;;;;;;5010254;28;20202;-89
2022/01/12 09:21:05;;;;;;;26.53;18.93;;;1.20;92.60;;;;;;5012737;28;20198;-89
2022/01/12 09:23:31;;;;;;;18.00;16.20;;;1.30;91.30;;;;;;4999723;28;20198;-91
2022/01/12 09:25:57;;;;;;;13.37;11.87;;;1.40;90.90;;;;;;5013033;28;20213;-91
2022/01/12 09:28:23;;;;;;;16.37;14.57;;;1.40;90.10;;;;;;5010812;28;20696;-91
2022/01/12 09:30:51;;;;;;;12.47;11.27;;;1.40;90.60;;;;;;5014873;28;20179;-87
2022/01/12 09:33:19;;;;;;;16.83;14.87;;;1.50;89.70;;;;;;5024102;28;20237;-89
2022/01/12 09:35:49;;;;;;;11.10;10.00;;;1.50;90.20;;;;;;5014123;28;20231;-90
2022/01/12 09:38:15;;;;;;;14.83;10.87;;;1.70;88.60;;;;;;5012079;28;20204;-90
2022/01/12 09:40:41;;;;;;;12.27;10.80;;;1.70;87.90;;;;;;5019042;28;20205;-88
2022/01/12 09:43:07;;;;;;;11.87;10.57;;;1.80;87.50;;;;;;5029111;28;20178;-87
2022/01/12 09:45:33;;;;;;;12.60;11.23;;;1.90;87.90;;;;;;5023136;28;20217;-90
2022/01/12 09:47:59;;;;;;;12.47;11.17;;;1.90;86.30;;;;;;5018785;28;20297;-89
2022/01/12 09:50:25;;;;;;;12.47;10.90;;;1.90;86.90;;;;;;5009740;28;20724;-89
2022/01/12 09:52:52;;;;;;;11.63;10.53;;;2.10;86.80;;;;;;5013754;28;20201;-89
2022/01/12 09:55:19;;;;;;;14.07;11.73;;;2.20;87.00;;;;;;5014031;28;20213;-90
2022/01/12 09:57:45;;;;;;;12.27;10.90;;;2.30;85.60;;;;;;5007476;28;20215;-90
2022/01/12 10:00:13;;;;;;;10.77;9.67;;;2.40;85.00;;;;;;5007251;28;20241;-91
2022/01/12 10:02:42;;;;;;;12.50;11.13;;;2.50;83.20;;;;;;5017298;28;20186;-90
2022/01/12 10:05:09;;;;;;;10.87;9.77;;;2.60;83.00;;;;;;5018714;28;20224;-88
2022/01/12 10:07:36;;;;;;;11.73;10.17;;;2.60;83.10;;;;;;5009550;28;20209;-90
2022/01/12 10:10:05;;;;;;;12.20;11.00;;;2.80;83.80;;;;;;5021645;28;20181;-90
2022/01/12 10:12:32;;;;;;;12.17;10.60;;;3.00;80.90;;;;;;5018374;28;20498;-90
2022/01/12 10:15:01;;;;;;;11.63;10.43;;;3.10;80.20;;;;;;5007126;28;20626;-89
2022/01/12 10:17:58;;;;;;;10.57;9.47;;;3.20;79.10;;;;;;5021511;28;20193;-90
2022/01/12 10:20:24;;;;;;;11.00;9.90;;;3.30;78.80;;;;;;5018417;28;20383;-89
2022/01/12 10:23:05;;;;;;;10.53;9.40;;;3.40;77.40;;;;;;5018774;28;20193;-89
2022/01/12 10:25:31;;;;;;;11.77;10.53;;;3.40;76.10;;;;;;5014118;28;20205;-91
2022/01/12 10:27:58;;;;;;;11.80;10.03;;;3.50;76.30;;;;;;5014437;28;20209;-90
2022/01/12 10:30:26;;;;;;;11.27;10.13;;;3.70;75.90;;;;;;5013578;28;20186;-90
2022/01/12 10:33:06;;;;;;;10.83;9.67;;;3.70;74.00;;;;;;5018037;28;20189;-89
2022/01/12 10:35:36;;;;;;;10.20;9.13;;;3.90;74.50;;;;;;5007335;28;20275;-88
2022/01/12 10:38:10;;;;;;;11.20;10.00;;;4.10;73.60;;;;;;5020600;28;20196;-89
2022/01/12 10:41:03;;;;;;;10.73;9.73;;;4.30;72.60;;;;;;5016040;28;20193;-90
2022/01/12 10:43:42;;;;;;;9.73;8.73;;;4.40;70.90;;;;;;5014747;28;20320;-90
2022/01/12 10:46:18;;;;;;;10.47;8.80;;;4.40;68.90;;;;;;5018646;28;20210;-89
2022/01/12 10:48:53;;;;;;;13.37;9.20;;;4.50;69.30;;;;;;5013458;28;20217;-89
2022/01/12 10:51:28;;;;;;;12.00;9.30;;;4.60;69.20;;;;;;5020282;28;20248;-89
2022/01/12 10:54:03;;;;;;;13.90;8.97;;;4.70;67.80;;;;;;5011279;28;20288;-90
2022/01/12 10:56:29;;;;;;;9.53;8.63;;;4.70;68.20;;;;;;5017844;28;20193;-90
2022/01/12 10:58:57;;;;;;;9.93;8.93;;;4.70;67.60;;;;;;5020747;28;20189;-89
2022/01/12 11:01:25;;;;;;;9.27;8.37;;;4.90;67.20;;;;;;5012027;28;20253;-90
2022/01/12 11:03:51;;;;;;;9.23;8.33;;;5.00;65.90;;;;;;5012018;28;20198;-89
2022/01/12 11:06:17;;;;;;;9.00;8.20;;;5.10;65.10;;;;;;5011957;28;20728;-89
2022/01/12 11:08:47;;;;;;;9.50;8.60;;;5.10;65.80;;;;;;5010780;28;20245;-90
2022/01/12 11:11:15;;;;;;;10.30;7.63;;;5.20;66.00;;;;;;5010434;28;20210;-90
2022/01/12 11:13:40;;;;;;;7.70;7.00;;;5.50;63.40;;;;;;5011194;28;20189;-89
2022/01/12 11:16:06;;;;;;;8.70;7.87;;;5.30;62.70;;;;;;5014757;28;20204;-89
2022/01/12 11:18:35;;;;;;;9.50;8.60;;;4.80;63.70;;;;;;5007058;28;20718;-88
2022/01/12 11:21:30;;;;;;;8.57;7.77;;;4.80;65.40;;;;;;5016045;28;20262;-89
2022/01/12 11:23:58;;;;;;;8.37;7.53;;;5.10;64.70;;;;;;5000467;28;20552;-89
2022/01/12 11:26:27;;;;;;;10.40;8.17;;;5.50;64.30;;;;;;5010561;28;20186;-89
2022/01/12 11:28:54;;;;;;;8.77;7.73;;;5.70;62.70;;;;;;5003974;28;20217;-89
2022/01/12 11:31:32;;;;;;;7.70;6.90;;;5.80;62.30;;;;;;5011457;28;20186;-89
2022/01/12 11:33:58;;;;;;;9.00;7.90;;;6.00;61.50;;;;;;5014556;28;20182;-89
2022/01/12 11:36:28;;;;;;;11.87;9.33;;;5.90;59.50;;;;;;5013216;28;20189;-89
2022/01/12 11:39:01;;;;;;;8.53;7.33;;;6.00;60.60;;;;;;5011079;28;20281;-89
2022/01/12 11:41:30;;;;;;;8.23;7.43;;;6.00;60.10;;;;;;5013148;28;20534;-89
2022/01/12 11:44:07;;;;;;;8.10;7.40;;;6.40;59.00;;;;;;5009732;28;20201;-89
2022/01/12 11:46:52;;;;;;;8.37;7.67;;;6.60;58.00;;;;;;5012467;28;20224;-89
2022/01/12 11:49:31;;;;;;;7.70;7.00;;;6.70;57.80;;;;;;5002375;28;20309;-89
2022/01/12 11:52:12;;;;;;;9.17;8.37;;;6.60;56.80;;;;;;5012040;28;20251;-90
2022/01/12 11:54:38;;;;;;;9.70;8.03;;;6.60;57.20;;;;;;5008682;28;20296;-89
2022/01/12 11:57:07;;;;;;;8.13;7.40;;;6.50;57.80;;;;;;5009391;28;20248;-89
2022/01/12 11:59:54;;;;;;;8.47;7.60;;;6.50;57.10;;;;;;5010484;28;20216;-89
2022/01/12 12:02:30;;;;;;;8.37;7.40;;;6.60;56.90;;;;;;5006968;28;20206;-89
2022/01/12 12:04:58;;;;;;;8.20;7.40;;;6.80;56.60;;;;;;5009946;28;20205;-89
2022/01/12 12:07:25;;;;;;;7.73;7.03;;;6.90;56.10;;;;;;5003354;28;20250;-88
2022/01/12 12:09:56;;;;;;;7.37;6.67;;;7.10;55.40;;;;;;5010629;28;20190;-88
2022/01/12 12:12:32;;;;;;;8.07;7.27;;;6.90;55.00;;;;;;5006655;28;20519;-89
2022/01/12 12:15:04;;;;;;;10.07;7.27;;;6.60;56.50;;;;;;5010856;28;20210;-88
2022/01/12 12:17:32;;;;;;;11.60;7.57;;;6.60;56.50;;;;;;5016010;28;20190;-90
2022/01/12 12:19:59;;;;;;;7.63;6.87;;;6.60;56.80;;;;;;5031174;28;20190;-86
2022/01/12 12:22:30;;;;;;;8.50;6.90;;;6.80;55.90;;;;;;5014077;28;20247;-86
2022/01/12 12:25:24;;;;;;;7.77;6.97;;;6.70;55.40;;;;;;5009789;28;20218;-87
2022/01/12 12:28:02;;;;;;;7.97;7.17;;;6.80;55.60;;;;;;5032231;28;20241;-88
2022/01/12 12:30:31;;;;;;;8.53;7.73;;;6.90;55.50;;;;;;5028837;28;20198;-87
2022/01/12 12:33:23;;;;;;;8.17;7.27;;;7.10;55.80;;;;;;5022820;28;20682;-87
2022/01/12 12:35:50;;;;;;;8.30;7.53;;;7.30;56.20;;;;;;5019871;28;20276;-89
2022/01/12 12:38:19;;;;;;;8.73;7.83;;;7.80;54.50;;;;;;5010019;28;20198;-88
2022/01/12 12:40:48;;;;;;;9.00;7.43;;;8.10;54.10;;;;;;5013625;28;20214;-88
2022/01/12 12:43:21;;;;;;;9.20;8.40;;;8.10;52.10;;;;;;5019918;28;20201;-87
2022/01/12 12:45:59;;;;;;;7.80;7.13;;;7.80;52.70;;;;;;5009947;28;20225;-86
2022/01/12 12:48:29;;;;;;;8.83;8.03;;;7.70;54.60;;;;;;5014969;28;20308;-85
2022/01/12 12:51:03;;;;;;;10.07;9.07;;;7.60;53.80;;;;;;5007970;28;20574;-86
2022/01/12 12:53:32;;;;;;;11.73;7.90;;;7.80;53.70;;;;;;5012835;28;20195;-86
2022/01/12 12:55:58;;;;;;;12.77;11.47;;;7.80;53.10;;;;;;5014262;28;20273;-85
2022/01/12 12:58:28;;;;;;;11.60;10.40;;;7.60;53.20;;;;;;5019264;28;20204;-85
2022/01/12 13:03:29;;;;;;;12.70;10.00;;;6.90;55.30;;;;;;3896217;26;20239;-94
2022/01/12 13:05:55;;;;;;;8.07;7.27;;;6.80;56.60;;;;;;4950262;28;20199;-95
2022/01/12 13:08:21;;;;;;;8.80;8.00;;;6.80;56.30;;;;;;4949106;28;20209;-95
2022/01/12 13:10:46;;;;;;;9.17;7.97;;;6.60;58.30;;;;;;4962315;28;20184;-95
2022/01/12 13:13:12;;;;;;;8.00;7.07;;;6.40;57.90;;;;;;4952771;28;20235;-93
2022/01/12 13:15:41;;;;;;;8.77;7.57;;;6.20;58.50;;;;;;4953877;29;20212;-96
2022/01/12 13:18:23;;;;;;;8.50;7.43;;;6.00;59.30;;;;;;4941031;29;20188;-95
2022/01/12 13:21:10;;;;;;;7.73;6.97;;;5.90;60.20;;;;;;4941800;29;20196;-95
2022/01/12 13:23:45;;;;;;;9.40;8.40;;;5.80;59.50;;;;;;4952784;28;20244;-95
2022/01/12 13:26:16;;;;;;;8.47;7.37;;;5.70;59.90;;;;;;4949642;28;20239;-96
2022/01/12 13:28:46;;;;;;;8.87;7.97;;;5.80;60.10;;;;;;4952231;28;20283;-96
2022/01/12 13:31:17;;;;;;;8.77;7.47;;;5.60;60.20;;;;;;4954594;29;20194;-95
2022/01/12 13:33:45;;;;;;;8.43;7.53;;;5.50;60.90;;;;;;4933449;29;20215;-96
2022/01/12 13:36:13;;;;;;;8.37;7.57;;;5.40;60.70;;;;;;4948446;29;20208;-95
2022/01/12 13:38:39;;;;;;;8.93;7.87;;;5.40;61.50;;;;;;4955709;28;20185;-95
2022/01/12 13:41:11;;;;;;;12.57;8.87;;;5.30;62.50;;;;;;4968074;28;20624;-96
2022/01/12 13:43:39;;;;;;;8.70;7.80;;;5.30;62.90;;;;;;4952797;28;20198;-95
2022/01/12 13:46:14;;;;;;;11.30;8.43;;;5.40;62.10;;;;;;4957351;28;20193;-96
2022/01/12 13:52:00;;;;;;;9.43;8.47;;;5.30;63.00;;;;;;4946517;28;20220;-96
2022/01/12 13:54:38;;;;;;;9.30;8.30;;;5.30;62.50;;;;;;4954322;29;20188;-96
2022/01/12 13:57:06;;;;;;;9.77;8.87;;;5.20;63.80;;;;;;4945309;29;20227;-95
2022/01/12 13:59:42;;;;;;;9.87;8.97;;;5.30;63.00;;;;;;4961485;28;20200;-95
2022/01/12 14:02:14;;;;;;;10.57;9.53;;;5.30;62.40;;;;;;4959376;28;20208;-96
2022/01/12 14:04:44;;;;;;;10.13;9.13;;;5.20;63.70;;;;;;4955749;28;20212;-95
2022/01/12 14:07:25;;;;;;;9.20;8.30;;;5.30;64.20;;;;;;4945432;28;20226;-94
2022/01/12 14:09:56;;;;;;;10.23;9.13;;;5.30;62.60;;;;;;4955685;28;20177;-95
2022/01/12 14:12:24;;;;;;;9.83;8.83;;;5.20;63.60;;;;;;4957737;28;20196;-96
2022/01/12 14:15:01;;;;;;;10.60;8.70;;;5.30;63.50;;;;;;4954293;28;20195;-95
2022/01/12 14:17:44;;;;;;;9.83;8.83;;;5.10;64.80;;;;;;4960371;28;20207;-95
2022/01/12 14:20:23;;;;;;;9.70;8.70;;;5.10;64.30;;;;;;4972798;28;20195;-95
2022/01/12 14:23:05;;;;;;;9.57;8.63;;;5.30;63.70;;;;;;4952366;28;20200;-94
2022/01/12 14:25:49;;;;;;;10.53;9.50;;;5.30;63.30;;;;;;4960830;29;20200;-95